sensor_id;sensor_type;location;lat;lon;timestamp;pressure;altitude;pressure_sealevel;temperature;humidity
12951;BME280;6540;50.858;7.232;2022-10-28T00:00:01;51733.50;;;-142.34;34.97
12951;BME280;6540;50.858;7.232;2022-10-28T00:02:26;51719.38;;;-142.34;35.99
12951;BME280;6540;50.858;7.232;2022-10-28T00:04:52;51697.19;;;-142.34;33.84
12951;BME280;6540;50.858;7.232;2022-10-28T00:07:17;51701.22;;;-142.34;34.19
12951;BME280;6540;50.858;7.232;2022-10-28T00:09:42;51701.22;;;-142.34;33.37
12951;BME280;6540;50.858;7.232;2022-10-28T00:12:08;51664.91;;;-142.34;32.70
12951;BME280;6540;50.858;7.232;2022-10-28T00:14:33;51699.22;;;-142.34;33.48
12951;BME280;6540;50.858;7.232;2022-10-28T00:16:58;51673.00;;;-142.34;32.82
12951;BME280;6540;50.858;7.232;2022-10-28T00:19:24;51713.34;;;-142.34;34.09
12951;BME280;6540;50.858;7.232;2022-10-28T00:21:49;51693.16;;;-142.34;33.86
12951;BME280;6540;50.858;7.232;2022-10-28T00:24:14;51660.88;;;-142.34;32.96
12951;BME280;6540;50.858;7.232;2022-10-28T00:26:41;51650.81;;;-142.34;32.53
12951;BME280;6540;50.858;7.232;2022-10-28T00:29:13;51689.13;;;-142.34;33.24
12951;BME280;6540;50.858;7.232;2022-10-28T00:31:39;51656.84;;;-142.34;33.55
12951;BME280;6540;50.858;7.232;2022-10-28T00:34:06;51679.03;;;-142.34;33.78
12951;BME280;6540;50.858;7.232;2022-10-28T00:36:35;51681.06;;;-142.34;33.49
12951;BME280;6540;50.858;7.232;2022-10-28T00:39:02;51626.59;;;-142.34;32.24
12951;BME280;6540;50.858;7.232;2022-10-28T00:41:32;51652.81;;;-142.34;33.13
12951;BME280;6540;50.858;7.232;2022-10-28T00:44:40;51705.25;;;-142.34;34.51
12951;BME280;6540;50.858;7.232;2022-10-28T00:46:49;51660.88;;;-142.34;33.46
12951;BME280;6540;50.858;7.232;2022-10-28T00:49:20;51673.00;;;-142.34;33.98
12951;BME280;6540;50.858;7.232;2022-10-28T00:51:54;51673.00;;;-142.34;33.39
12951;BME280;6540;50.858;7.232;2022-10-28T00:54:21;51705.25;;;-142.34;33.92
12951;BME280;6540;50.858;7.232;2022-10-28T00:56:50;51648.78;;;-142.34;33.04
12951;BME280;6540;50.858;7.232;2022-10-28T00:59:26;51689.13;;;-142.34;33.74
12951;BME280;6540;50.858;7.232;2022-10-28T01:01:52;51640.72;;;-142.34;32.67
12951;BME280;6540;50.858;7.232;2022-10-28T01:04:18;51677.03;;;-142.34;33.80
12951;BME280;6540;50.858;7.232;2022-10-28T01:06:45;51675.00;;;-142.34;33.47
12951;BME280;6540;50.858;7.232;2022-10-28T01:09:11;51654.84;;;-142.34;32.97
12951;BME280;6540;50.858;7.232;2022-10-28T01:11:39;51664.91;;;-142.34;32.97
12951;BME280;6540;50.858;7.232;2022-10-28T01:14:21;51660.88;;;-142.34;33.92
12951;BME280;6540;50.858;7.232;2022-10-28T01:31:28;51685.09;;;-142.34;33.03
12951;BME280;6540;50.858;7.232;2022-10-28T01:36:37;51640.72;;;-142.34;32.82
12951;BME280;6540;50.858;7.232;2022-10-28T01:39:17;51683.06;;;-142.34;33.49
12951;BME280;6540;50.858;7.232;2022-10-28T01:41:57;51695.19;;;-142.34;33.05
12951;BME280;6540;50.858;7.232;2022-10-28T01:47:16;51630.63;;;-142.34;31.84
12951;BME280;6540;50.858;7.232;2022-10-28T01:49:52;51662.91;;;-142.34;32.69
12951;BME280;6540;50.858;7.232;2022-10-28T01:52:21;51632.66;;;-142.34;32.18
12951;BME280;6540;50.858;7.232;2022-10-28T01:54:53;51666.94;;;-142.34;32.43
12951;BME280;6540;50.858;7.232;2022-10-28T01:57:24;51668.97;;;-142.34;32.32
12951;BME280;6540;50.858;7.232;2022-10-28T01:59:52;51670.97;;;-142.34;32.66
12951;BME280;6540;50.858;7.232;2022-10-28T02:02:17;51632.66;;;-142.34;31.89
12951;BME280;6540;50.858;7.232;2022-10-28T02:04:43;51677.03;;;-142.34;32.77
12951;BME280;6540;50.858;7.232;2022-10-28T02:07:08;51652.81;;;-142.34;32.57
12951;BME280;6540;50.858;7.232;2022-10-28T02:10:00;51670.97;;;-142.34;32.96
12951;BME280;6540;50.858;7.232;2022-10-28T02:12:32;51644.75;;;-142.34;31.92
12951;BME280;6540;50.858;7.232;2022-10-28T02:21:28;51685.09;;;-142.34;33.03
12951;BME280;6540;50.858;7.232;2022-10-28T02:24:04;51666.94;;;-142.34;32.81
12951;BME280;6540;50.858;7.232;2022-10-28T02:26:35;51660.88;;;-142.34;32.26
12951;BME280;6540;50.858;7.232;2022-10-28T02:29:13;51679.03;;;-142.34;33.60
12951;BME280;6540;50.858;7.232;2022-10-28T02:32:01;51713.34;;;-142.34;33.99
12951;BME280;6540;50.858;7.232;2022-10-28T02:34:32;51729.47;;;-142.34;34.23
12951;BME280;6540;50.858;7.232;2022-10-28T02:37:03;51677.03;;;-142.34;33.73
12951;BME280;6540;50.858;7.232;2022-10-28T02:39:36;51681.06;;;-142.34;32.59
12951;BME280;6540;50.858;7.232;2022-10-28T02:42:07;51644.75;;;-142.34;32.17
12951;BME280;6540;50.858;7.232;2022-10-28T02:44:44;51660.88;;;-142.34;32.17
12951;BME280;6540;50.858;7.232;2022-10-28T02:47:16;51636.69;;;-142.34;33.23
12951;BME280;6540;50.858;7.232;2022-10-28T02:49:46;51677.03;;;-142.34;33.82
12951;BME280;6540;50.858;7.232;2022-10-28T02:52:12;51660.88;;;-142.34;33.31
12951;BME280;6540;50.858;7.232;2022-10-28T02:54:44;51673.00;;;-142.34;33.00
12951;BME280;6540;50.858;7.232;2022-10-28T02:57:16;51618.53;;;-142.34;32.51
12951;BME280;6540;50.858;7.232;2022-10-28T02:59:53;51638.69;;;-142.34;32.62
12951;BME280;6540;50.858;7.232;2022-10-28T03:02:20;51705.25;;;-142.34;34.38
12951;BME280;6540;50.858;7.232;2022-10-28T03:04:45;51723.41;;;-142.34;34.38
12951;BME280;6540;50.858;7.232;2022-10-28T03:07:10;51729.47;;;-142.34;34.74
12951;BME280;6540;50.858;7.232;2022-10-28T03:09:36;51735.53;;;-142.34;35.74
12951;BME280;6540;50.858;7.232;2022-10-28T03:12:01;51717.38;;;-142.34;33.71
12951;BME280;6540;50.858;7.232;2022-10-28T03:14:26;51705.25;;;-142.34;33.95
12951;BME280;6540;50.858;7.232;2022-10-28T03:16:52;51693.16;;;-142.34;34.33
12951;BME280;6540;50.858;7.232;2022-10-28T03:19:17;51689.13;;;-142.34;33.74
12951;BME280;6540;50.858;7.232;2022-10-28T03:21:42;51725.44;;;-142.34;34.44
12951;BME280;6540;50.858;7.232;2022-10-28T03:24:08;51725.44;;;-142.34;34.21
12951;BME280;6540;50.858;7.232;2022-10-28T03:26:33;51685.09;;;-142.34;33.19
12951;BME280;6540;50.858;7.232;2022-10-28T03:28:58;51693.16;;;-142.34;33.68
12951;BME280;6540;50.858;7.232;2022-10-28T03:31:24;51656.84;;;-142.34;32.79
12951;BME280;6540;50.858;7.232;2022-10-28T03:33:49;51695.19;;;-142.34;33.34
12951;BME280;6540;50.858;7.232;2022-10-28T03:36:14;51687.09;;;-142.34;34.17
12951;BME280;6540;50.858;7.232;2022-10-28T03:38:39;51693.16;;;-142.34;33.59
12951;BME280;6540;50.858;7.232;2022-10-28T03:41:05;51699.22;;;-142.34;33.24
12951;BME280;6540;50.858;7.232;2022-10-28T03:43:30;51715.34;;;-142.34;33.54
12951;BME280;6540;50.858;7.232;2022-10-28T03:45:56;51701.22;;;-142.34;33.83
12951;BME280;6540;50.858;7.232;2022-10-28T03:48:21;51717.38;;;-142.34;33.28
12951;BME280;6540;50.858;7.232;2022-10-28T03:50:46;51725.44;;;-142.34;33.97
12951;BME280;6540;50.858;7.232;2022-10-28T03:53:12;51691.16;;;-142.34;33.17
12951;BME280;6540;50.858;7.232;2022-10-28T03:55:37;51683.06;;;-142.34;33.50
12951;BME280;6540;50.858;7.232;2022-10-28T03:58:02;51711.31;;;-142.34;34.84
12951;BME280;6540;50.858;7.232;2022-10-28T04:00:28;51733.50;;;-142.34;35.01
12951;BME280;6540;50.858;7.232;2022-10-28T04:02:54;51707.28;;;-142.34;33.28
12951;BME280;6540;50.858;7.232;2022-10-28T04:05:20;51683.06;;;-142.34;33.22
12951;BME280;6540;50.858;7.232;2022-10-28T04:07:46;51699.22;;;-142.34;33.56
12951;BME280;6540;50.858;7.232;2022-10-28T04:10:12;51681.06;;;-142.34;33.37
12951;BME280;6540;50.858;7.232;2022-10-28T04:12:37;51693.16;;;-142.34;32.64
12951;BME280;6540;50.858;7.232;2022-10-28T04:15:03;51691.16;;;-142.34;33.61
12951;BME280;6540;50.858;7.232;2022-10-28T04:17:29;51709.31;;;-142.34;33.08
12951;BME280;6540;50.858;7.232;2022-10-28T04:19:54;51691.16;;;-142.34;34.03
12951;BME280;6540;50.858;7.232;2022-10-28T04:22:20;51707.28;;;-142.34;32.98
12951;BME280;6540;50.858;7.232;2022-10-28T04:24:45;51753.69;;;-142.34;35.23
12951;BME280;6540;50.858;7.232;2022-10-28T04:27:10;51729.47;;;-142.34;34.15
12951;BME280;6540;50.858;7.232;2022-10-28T04:29:36;51685.09;;;-142.34;32.64
12951;BME280;6540;50.858;7.232;2022-10-28T04:32:01;51725.44;;;-142.34;33.51
12951;BME280;6540;50.858;7.232;2022-10-28T04:34:27;51677.03;;;-142.34;33.13
12951;BME280;6540;50.858;7.232;2022-10-28T04:36:52;51689.13;;;-142.34;32.36
12951;BME280;6540;50.858;7.232;2022-10-28T04:39:17;51717.38;;;-142.34;32.91
12951;BME280;6540;50.858;7.232;2022-10-28T04:41:43;51679.03;;;-142.34;33.08
12951;BME280;6540;50.858;7.232;2022-10-28T04:44:08;51681.06;;;-142.34;33.38
12951;BME280;6540;50.858;7.232;2022-10-28T04:46:33;51681.06;;;-142.34;32.76
12951;BME280;6540;50.858;7.232;2022-10-28T04:48:59;51693.16;;;-142.34;33.51
12951;BME280;6540;50.858;7.232;2022-10-28T04:51:24;51691.16;;;-142.34;32.51
12951;BME280;6540;50.858;7.232;2022-10-28T04:53:50;51715.34;;;-142.34;33.46
12951;BME280;6540;50.858;7.232;2022-10-28T04:56:15;51668.97;;;-142.34;33.09
12951;BME280;6540;50.858;7.232;2022-10-28T04:58:40;51664.91;;;-142.34;32.40
12951;BME280;6540;50.858;7.232;2022-10-28T05:01:07;51693.16;;;-142.34;32.51
12951;BME280;6540;50.858;7.232;2022-10-28T05:03:33;51703.25;;;-142.34;33.85
12951;BME280;6540;50.858;7.232;2022-10-28T05:05:59;51717.38;;;-142.34;32.77
12951;BME280;6540;50.858;7.232;2022-10-28T05:08:24;51713.34;;;-142.34;34.47
12951;BME280;6540;50.858;7.232;2022-10-28T05:10:50;51723.41;;;-142.34;34.19
12951;BME280;6540;50.858;7.232;2022-10-28T05:13:18;51691.16;;;-142.34;32.83
12951;BME280;6540;50.858;7.232;2022-10-28T05:15:44;51711.31;;;-142.34;33.18
12951;BME280;6540;50.858;7.232;2022-10-28T05:18:11;51719.38;;;-142.34;33.70
12951;BME280;6540;50.858;7.232;2022-10-28T05:20:37;51763.75;;;-142.34;33.89
12951;BME280;6540;50.858;7.232;2022-10-28T05:23:02;51737.53;;;-142.34;34.99
12951;BME280;6540;50.858;7.232;2022-10-28T05:25:27;51759.72;;;-142.34;34.21
12951;BME280;6540;50.858;7.232;2022-10-28T05:27:57;51753.69;;;-142.34;34.53
12951;BME280;6540;50.858;7.232;2022-10-28T05:30:22;51755.69;;;-142.34;34.29
12951;BME280;6540;50.858;7.232;2022-10-28T05:32:47;51753.69;;;-142.34;34.89
12951;BME280;6540;50.858;7.232;2022-10-28T05:35:13;51745.59;;;-142.34;34.53
12951;BME280;6540;50.858;7.232;2022-10-28T05:37:38;51753.69;;;-142.34;34.77
12951;BME280;6540;50.858;7.232;2022-10-28T05:40:04;51743.59;;;-142.34;33.89
12951;BME280;6540;50.858;7.232;2022-10-28T05:42:30;51781.91;;;-142.34;35.74
12951;BME280;6540;50.858;7.232;2022-10-28T05:44:55;51721.41;;;-142.34;34.34
12951;BME280;6540;50.858;7.232;2022-10-28T05:47:20;51765.78;;;-142.34;34.44
12951;BME280;6540;50.858;7.232;2022-10-28T05:49:46;51753.69;;;-142.34;35.28
12951;BME280;6540;50.858;7.232;2022-10-28T05:52:11;51773.84;;;-142.34;34.97
12951;BME280;6540;50.858;7.232;2022-10-28T05:54:36;51761.75;;;-142.34;34.94
12951;BME280;6540;50.858;7.232;2022-10-28T05:57:02;51757.72;;;-142.34;35.93
12951;BME280;6540;50.858;7.232;2022-10-28T05:59:27;51781.91;;;-142.34;34.94
12951;BME280;6540;50.858;7.232;2022-10-28T06:01:53;51781.91;;;-142.34;35.90
12951;BME280;6540;50.858;7.232;2022-10-28T06:04:18;51765.78;;;-142.34;35.28
12951;BME280;6540;50.858;7.232;2022-10-28T06:06:43;51763.75;;;-142.34;34.70
12951;BME280;6540;50.858;7.232;2022-10-28T06:09:09;51753.69;;;-142.34;34.34
12951;BME280;6540;50.858;7.232;2022-10-28T06:11:34;51743.59;;;-142.34;34.65
12951;BME280;6540;50.858;7.232;2022-10-28T06:14:00;51796.03;;;-142.34;35.00
12951;BME280;6540;50.858;7.232;2022-10-28T06:16:25;51773.84;;;-142.34;35.10
12951;BME280;6540;50.858;7.232;2022-10-28T06:18:50;51723.41;;;-142.34;34.38
12951;BME280;6540;50.858;7.232;2022-10-28T06:21:16;51790.00;;;-142.34;35.51
12951;BME280;6540;50.858;7.232;2022-10-28T06:23:41;51753.69;;;-142.34;34.41
12951;BME280;6540;50.858;7.232;2022-10-28T06:26:08;51743.59;;;-142.34;34.75
12951;BME280;6540;50.858;7.232;2022-10-28T06:28:33;51721.41;;;-142.34;34.48
12951;BME280;6540;50.858;7.232;2022-10-28T06:31:03;51745.59;;;-142.34;34.65
12951;BME280;6540;50.858;7.232;2022-10-28T06:33:29;51757.72;;;-142.34;34.50
12951;BME280;6540;50.858;7.232;2022-10-28T06:35:58;51765.78;;;-142.34;35.13
12951;BME280;6540;50.858;7.232;2022-10-28T06:38:24;51765.78;;;-142.34;35.88
12951;BME280;6540;50.858;7.232;2022-10-28T06:40:50;51790.00;;;-142.34;36.70
12951;BME280;6540;50.858;7.232;2022-10-28T06:43:15;51779.91;;;-142.34;35.35
12951;BME280;6540;50.858;7.232;2022-10-28T06:45:41;51757.72;;;-142.34;34.82
12951;BME280;6540;50.858;7.232;2022-10-28T06:48:07;51757.72;;;-142.34;35.51
12951;BME280;6540;50.858;7.232;2022-10-28T06:50:34;51775.88;;;-142.34;35.25
12951;BME280;6540;50.858;7.232;2022-10-28T06:52:59;51773.84;;;-142.34;35.43
12951;BME280;6540;50.858;7.232;2022-10-28T06:55:25;51779.91;;;-142.34;35.96
12951;BME280;6540;50.858;7.232;2022-10-28T06:57:51;51781.91;;;-142.34;36.31
12951;BME280;6540;50.858;7.232;2022-10-28T07:00:17;51777.88;;;-142.34;35.96
12951;BME280;6540;50.858;7.232;2022-10-28T07:02:43;51781.91;;;-142.34;36.05
12951;BME280;6540;50.858;7.232;2022-10-28T07:05:08;51792.00;;;-142.34;36.38
12951;BME280;6540;50.858;7.232;2022-10-28T07:07:35;51763.75;;;-142.34;35.67
12951;BME280;6540;50.858;7.232;2022-10-28T07:10:04;51751.66;;;-142.34;36.16
12951;BME280;6540;50.858;7.232;2022-10-28T07:12:29;51767.81;;;-142.34;34.82
12951;BME280;6540;50.858;7.232;2022-10-28T07:14:55;51759.72;;;-142.34;35.71
12951;BME280;6540;50.858;7.232;2022-10-28T07:17:20;51781.91;;;-142.34;35.92
12951;BME280;6540;50.858;7.232;2022-10-28T07:19:45;51759.72;;;-142.34;35.01
12951;BME280;6540;50.858;7.232;2022-10-28T07:22:11;51769.81;;;-142.34;35.81
12951;BME280;6540;50.858;7.232;2022-10-28T07:24:36;51751.66;;;-142.34;35.11
12951;BME280;6540;50.858;7.232;2022-10-28T07:27:01;51769.81;;;-142.34;35.72
12951;BME280;6540;50.858;7.232;2022-10-28T07:29:27;51749.66;;;-142.34;35.36
12951;BME280;6540;50.858;7.232;2022-10-28T07:31:53;51737.53;;;-142.34;34.94
12951;BME280;6540;50.858;7.232;2022-10-28T07:34:19;51747.63;;;-142.34;35.64
12951;BME280;6540;50.858;7.232;2022-10-28T07:36:48;51737.53;;;-142.34;35.47
12951;BME280;6540;50.858;7.232;2022-10-28T07:39:14;51769.81;;;-142.34;35.11
12951;BME280;6540;50.858;7.232;2022-10-28T07:41:39;51779.91;;;-142.34;35.17
12951;BME280;6540;50.858;7.232;2022-10-28T07:44:05;51765.78;;;-142.34;35.53
12951;BME280;6540;50.858;7.232;2022-10-28T07:46:31;51769.81;;;-142.34;35.33
12951;BME280;6540;50.858;7.232;2022-10-28T07:48:56;51741.56;;;-142.34;35.07
12951;BME280;6540;50.858;7.232;2022-10-28T07:51:21;51745.59;;;-142.34;34.48
12951;BME280;6540;50.858;7.232;2022-10-28T07:53:47;51729.47;;;-142.34;34.80
12951;BME280;6540;50.858;7.232;2022-10-28T07:56:12;51757.72;;;-142.34;35.54
12951;BME280;6540;50.858;7.232;2022-10-28T07:58:39;51798.06;;;-142.34;35.52
12951;BME280;6540;50.858;7.232;2022-10-28T08:01:06;51725.44;;;-142.34;35.09
12951;BME280;6540;50.858;7.232;2022-10-28T08:03:32;51777.88;;;-142.34;36.21
12951;BME280;6540;50.858;7.232;2022-10-28T08:05:59;51733.50;;;-142.34;36.03
12951;BME280;6540;50.858;7.232;2022-10-28T08:08:25;51775.88;;;-142.34;35.75
12951;BME280;6540;50.858;7.232;2022-10-28T08:10:51;51741.56;;;-142.34;35.21
12951;BME280;6540;50.858;7.232;2022-10-28T08:13:16;51745.59;;;-142.34;34.84
12951;BME280;6540;50.858;7.232;2022-10-28T08:15:41;51733.50;;;-142.34;34.36
12951;BME280;6540;50.858;7.232;2022-10-28T08:18:07;51725.44;;;-142.34;34.57
12951;BME280;6540;50.858;7.232;2022-10-28T08:20:32;51721.41;;;-142.34;35.10
12951;BME280;6540;50.858;7.232;2022-10-28T08:22:57;51741.56;;;-142.34;35.35
12951;BME280;6540;50.858;7.232;2022-10-28T08:25:24;51725.44;;;-142.34;34.51
12951;BME280;6540;50.858;7.232;2022-10-28T08:27:49;51749.66;;;-142.34;35.81
12951;BME280;6540;50.858;7.232;2022-10-28T08:30:14;51721.41;;;-142.34;35.58
12951;BME280;6540;50.858;7.232;2022-10-28T08:32:40;51725.44;;;-142.34;35.28
12951;BME280;6540;50.858;7.232;2022-10-28T08:35:06;51739.56;;;-142.34;35.77
12951;BME280;6540;50.858;7.232;2022-10-28T08:37:31;51739.56;;;-142.34;35.08
12951;BME280;6540;50.858;7.232;2022-10-28T08:39:56;51707.28;;;-142.34;34.90
12951;BME280;6540;50.858;7.232;2022-10-28T08:42:45;51741.56;;;-142.34;34.92
12951;BME280;6540;50.858;7.232;2022-10-28T08:48:17;51697.19;;;-142.34;34.60
12951;BME280;6540;50.858;7.232;2022-10-28T08:50:52;51693.16;;;-142.34;34.42
12951;BME280;6540;50.858;7.232;2022-10-28T08:53:29;51711.31;;;-142.34;34.27
12951;BME280;6540;50.858;7.232;2022-10-28T08:56:18;51644.75;;;-142.34;33.13
12951;BME280;6540;50.858;7.232;2022-10-28T08:58:48;51660.88;;;-142.34;32.78
12951;BME280;6540;50.858;7.232;2022-10-28T09:01:21;51644.75;;;-142.34;33.07
12951;BME280;6540;50.858;7.232;2022-10-28T09:03:51;51640.72;;;-142.34;33.48
12951;BME280;6540;50.858;7.232;2022-10-28T09:06:20;51650.81;;;-142.34;33.58
12951;BME280;6540;50.858;7.232;2022-10-28T09:08:47;51668.97;;;-142.34;34.67
12951;BME280;6540;50.858;7.232;2022-10-28T09:14:28;51677.03;;;-142.34;33.45
12951;BME280;6540;50.858;7.232;2022-10-28T09:17:09;51673.00;;;-142.34;33.51
12951;BME280;6540;50.858;7.232;2022-10-28T09:19:50;51660.88;;;-142.34;32.12
12951;BME280;6540;50.858;7.232;2022-10-28T09:24:54;51640.72;;;-142.34;32.23
12951;BME280;6540;50.858;7.232;2022-10-28T09:27:39;51652.81;;;-142.34;32.82
12951;BME280;6540;50.858;7.232;2022-10-28T09:35:41;51636.69;;;-142.34;32.63
12951;BME280;6540;50.858;7.232;2022-10-28T09:38:29;51666.94;;;-142.34;32.76
12951;BME280;6540;50.858;7.232;2022-10-28T09:41:03;51648.78;;;-142.34;32.67
12951;BME280;6540;50.858;7.232;2022-10-28T09:43:37;51652.81;;;-142.34;32.57
12951;BME280;6540;50.858;7.232;2022-10-28T09:46:11;51608.44;;;-142.34;32.38
12951;BME280;6540;50.858;7.232;2022-10-28T09:48:41;51608.44;;;-142.34;32.02
12951;BME280;6540;50.858;7.232;2022-10-28T09:51:24;51644.75;;;-142.34;32.67
12951;BME280;6540;50.858;7.232;2022-10-28T09:53:59;51560.03;;;-142.34;31.05
12951;BME280;6540;50.858;7.232;2022-10-28T09:56:26;51584.22;;;-142.34;31.46
12951;BME280;6540;50.858;7.232;2022-10-28T09:58:52;51620.53;;;-142.34;32.42
12951;BME280;6540;50.858;7.232;2022-10-28T10:01:20;51600.38;;;-142.34;31.94
12951;BME280;6540;50.858;7.232;2022-10-28T10:03:50;51604.41;;;-142.34;31.89
12951;BME280;6540;50.858;7.232;2022-10-28T10:06:19;51626.59;;;-142.34;32.38
12951;BME280;6540;50.858;7.232;2022-10-28T10:08:46;51626.59;;;-142.34;32.41
12951;BME280;6540;50.858;7.232;2022-10-28T10:13:54;51596.34;;;-142.34;31.62
12951;BME280;6540;50.858;7.232;2022-10-28T10:19:07;51566.09;;;-142.34;31.23
12951;BME280;6540;50.858;7.232;2022-10-28T10:26:51;51652.81;;;-142.34;32.76
12951;BME280;6540;50.858;7.232;2022-10-28T10:29:17;51578.19;;;-142.34;31.74
12951;BME280;6540;50.858;7.232;2022-10-28T10:31:43;51541.88;;;-142.34;30.94
12951;BME280;6540;50.858;7.232;2022-10-28T10:34:41;51553.97;;;-142.34;31.31
12951;BME280;6540;50.858;7.232;2022-10-28T10:37:16;51551.97;;;-142.34;31.31
12951;BME280;6540;50.858;7.232;2022-10-28T10:39:43;51572.13;;;-142.34;31.47
12951;BME280;6540;50.858;7.232;2022-10-28T10:42:15;51580.19;;;-142.34;31.29
12951;BME280;6540;50.858;7.232;2022-10-28T10:44:42;51584.22;;;-142.34;31.81
12951;BME280;6540;50.858;7.232;2022-10-28T10:49:37;51596.34;;;-142.34;31.86
12951;BME280;6540;50.858;7.232;2022-10-28T10:52:15;51501.53;;;-142.34;30.87
12951;BME280;6540;50.858;7.232;2022-10-28T10:55:05;51487.41;;;-142.34;30.63
12951;BME280;6540;50.858;7.232;2022-10-28T10:57:31;51507.59;;;-142.34;30.39
12951;BME280;6540;50.858;7.232;2022-10-28T10:59:57;51543.88;;;-142.34;31.33
12951;BME280;6540;50.858;7.232;2022-10-28T11:04:55;51533.81;;;-142.34;31.18
12951;BME280;6540;50.858;7.232;2022-10-28T11:07:22;51560.03;;;-142.34;30.98
12951;BME280;6540;50.858;7.232;2022-10-28T11:09:48;51519.69;;;-142.34;30.84
12951;BME280;6540;50.858;7.232;2022-10-28T11:12:26;51549.94;;;-142.34;31.73
12951;BME280;6540;50.858;7.232;2022-10-28T11:18:15;51549.94;;;-142.34;31.27
12951;BME280;6540;50.858;7.232;2022-10-28T11:25:52;51556.00;;;-142.34;31.42
12951;BME280;6540;50.858;7.232;2022-10-28T11:33:45;51547.94;;;-142.34;31.34
12951;BME280;6540;50.858;7.232;2022-10-28T11:36:33;51551.97;;;-142.34;31.78
12951;BME280;6540;50.858;7.232;2022-10-28T11:39:15;51543.88;;;-142.34;31.30
12951;BME280;6540;50.858;7.232;2022-10-28T11:41:55;51541.88;;;-142.34;30.58
12951;BME280;6540;50.858;7.232;2022-10-28T11:44:35;51531.78;;;-142.34;31.12
12951;BME280;6540;50.858;7.232;2022-10-28T11:55:31;51523.72;;;-142.34;30.70
12951;BME280;6540;50.858;7.232;2022-10-28T11:58:14;51537.84;;;-142.34;31.69
12951;BME280;6540;50.858;7.232;2022-10-28T12:03:35;51580.19;;;-142.34;31.59
12951;BME280;6540;50.858;7.232;2022-10-28T12:06:27;51545.91;;;-142.34;31.29
12951;BME280;6540;50.858;7.232;2022-10-28T12:14:31;51511.63;;;-142.34;31.18
12951;BME280;6540;50.858;7.232;2022-10-28T12:19:58;51523.72;;;-142.34;31.16
12951;BME280;6540;50.858;7.232;2022-10-28T12:22:32;51459.16;;;-142.34;30.28
12951;BME280;6540;50.858;7.232;2022-10-28T12:25:07;51445.06;;;-142.34;29.74
12951;BME280;6540;50.858;7.232;2022-10-28T12:27:39;51501.53;;;-142.34;29.81
12951;BME280;6540;50.858;7.232;2022-10-28T12:30:16;51455.13;;;-142.34;29.51
12951;BME280;6540;50.858;7.232;2022-10-28T12:32:47;51459.16;;;-142.34;29.40
12951;BME280;6540;50.858;7.232;2022-10-28T12:35:33;51519.69;;;-142.34;29.64
12951;BME280;6540;50.858;7.232;2022-10-28T12:38:14;51507.59;;;-142.34;30.02
12951;BME280;6540;50.858;7.232;2022-10-28T12:43:23;51455.13;;;-142.34;28.64
12951;BME280;6540;50.858;7.232;2022-10-28T12:45:56;51497.50;;;-142.34;29.21
12951;BME280;6540;50.858;7.232;2022-10-28T12:48:35;51465.22;;;-142.34;28.82
12951;BME280;6540;50.858;7.232;2022-10-28T12:56:42;51469.25;;;-142.34;28.83
12951;BME280;6540;50.858;7.232;2022-10-28T12:59:24;51475.31;;;-142.34;28.57
12951;BME280;6540;50.858;7.232;2022-10-28T13:01:55;51451.09;;;-142.34;28.67
12951;BME280;6540;50.858;7.232;2022-10-28T13:04:21;51479.34;;;-142.34;29.18
12951;BME280;6540;50.858;7.232;2022-10-28T13:12:39;51487.41;;;-142.34;28.86
12951;BME280;6540;50.858;7.232;2022-10-28T13:15:13;51455.13;;;-142.34;28.59
12951;BME280;6540;50.858;7.232;2022-10-28T13:20:45;51471.28;;;-142.34;29.07
12951;BME280;6540;50.858;7.232;2022-10-28T13:23:22;51471.28;;;-142.34;28.58
12951;BME280;6540;50.858;7.232;2022-10-28T13:26:08;51479.34;;;-142.34;29.12
12951;BME280;6540;50.858;7.232;2022-10-28T13:28:48;51447.06;;;-142.34;28.43
12951;BME280;6540;50.858;7.232;2022-10-28T13:31:14;51459.16;;;-142.34;28.14
12951;BME280;6540;50.858;7.232;2022-10-28T13:33:47;51422.88;;;-142.34;28.47
12951;BME280;6540;50.858;7.232;2022-10-28T13:38:55;51505.56;;;-142.34;29.04
12951;BME280;6540;50.858;7.232;2022-10-28T13:41:39;51453.13;;;-142.34;28.37
12951;BME280;6540;50.858;7.232;2022-10-28T13:49:35;51406.72;;;-142.34;28.14
12951;BME280;6540;50.858;7.232;2022-10-28T13:57:12;51471.28;;;-142.34;28.77
12951;BME280;6540;50.858;7.232;2022-10-28T14:04:59;51459.16;;;-142.34;29.61
12951;BME280;6540;50.858;7.232;2022-10-28T14:07:28;51459.16;;;-142.34;29.18
12951;BME280;6540;50.858;7.232;2022-10-28T14:09:58;51487.41;;;-142.34;28.83
12951;BME280;6540;50.858;7.232;2022-10-28T14:12:40;51445.06;;;-142.34;28.54
12951;BME280;6540;50.858;7.232;2022-10-28T14:15:17;51434.97;;;-142.34;28.61
12951;BME280;6540;50.858;7.232;2022-10-28T14:17:47;51483.38;;;-142.34;29.30
12951;BME280;6540;50.858;7.232;2022-10-28T14:22:54;51495.47;;;-142.34;30.26
12951;BME280;6540;50.858;7.232;2022-10-28T14:49:35;51511.63;;;-142.34;30.58
12951;BME280;6540;50.858;7.232;2022-10-28T14:52:11;51479.34;;;-142.34;30.30
12951;BME280;6540;50.858;7.232;2022-10-28T14:54:48;51513.63;;;-142.34;31.29
12951;BME280;6540;50.858;7.232;2022-10-28T14:57:15;51483.38;;;-142.34;31.40
12951;BME280;6540;50.858;7.232;2022-10-28T14:59:48;51527.75;;;-142.34;31.77
12951;BME280;6540;50.858;7.232;2022-10-28T15:04:46;51499.50;;;-142.34;31.45
12951;BME280;6540;50.858;7.232;2022-10-28T15:07:17;51519.69;;;-142.34;31.91
12951;BME280;6540;50.858;7.232;2022-10-28T15:09:44;51495.47;;;-142.34;31.78
12951;BME280;6540;50.858;7.232;2022-10-28T15:12:15;51521.69;;;-142.34;31.76
12951;BME280;6540;50.858;7.232;2022-10-28T15:14:49;51511.63;;;-142.34;31.81
12951;BME280;6540;50.858;7.232;2022-10-28T15:17:20;51543.88;;;-142.34;32.11
12951;BME280;6540;50.858;7.232;2022-10-28T15:19:49;51489.44;;;-142.34;32.38
12951;BME280;6540;50.858;7.232;2022-10-28T15:25:01;51523.72;;;-142.34;32.21
12951;BME280;6540;50.858;7.232;2022-10-28T15:27:32;51517.66;;;-142.34;32.17
12951;BME280;6540;50.858;7.232;2022-10-28T15:29:58;51511.63;;;-142.34;31.93
12951;BME280;6540;50.858;7.232;2022-10-28T15:32:28;51543.88;;;-142.34;32.32
12951;BME280;6540;50.858;7.232;2022-10-28T15:34:54;51547.94;;;-142.34;32.47
12951;BME280;6540;50.858;7.232;2022-10-28T15:37:22;51525.75;;;-142.34;31.92